Time;durP1;ratioP1;P1;durP2;ratioP2;P2;SDS_P1;SDS_P2;PMS_P1;PMS_P2;Temp;Humidity;BMP_temperature;BMP_pressure;BME280_temperature;BME280_humidity;BME280_pressure;Samples;Min_cycle;Max_cycle;Signal;HPM_P1;HPM_P2
2023/02/12 00:01:59;;;;;;;11.00;7.30;;;;;;;1.50;91.30;99045.64;105661;1260;62999;-23
2023/02/12 00:04:28;;;;;;;9.70;7.30;;;;;;;1.67;91.23;99064.92;105808;1254;61882;-23
2023/02/12 00:06:57;;;;;;;14.00;7.30;;;;;;;1.76;90.63;99070.16;105665;1253;75360;-23
2023/02/12 00:09:26;;;;;;;10.10;7.00;;;;;;;1.61;90.80;99077.67;105603;1259;75549;-23
2023/02/12 00:11:55;;;;;;;10.30;6.50;;;;;;;1.52;91.47;99075.83;105645;1258;73081;-22
2023/02/12 00:14:24;;;;;;;12.30;7.60;;;;;;;1.70;91.32;99079.84;105685;1255;61532;-22
2023/02/12 00:16:55;;;;;;;11.50;6.70;;;;;;;1.80;90.73;99081.44;105665;1258;61858;-23
2023/02/12 00:19:24;;;;;;;8.20;5.80;;;;;;;1.75;90.56;99086.83;105790;1254;75359;-22
2023/02/12 00:21:53;;;;;;;8.90;6.70;;;;;;;1.59;91.11;99094.17;105671;1260;75967;-22
2023/02/12 00:24:22;;;;;;;9.50;7.00;;;;;;;1.66;91.61;99096.98;105695;1258;73963;-22
2023/02/12 00:26:51;;;;;;;9.00;6.40;;;;;;;1.88;90.86;99104.52;105664;1258;61641;-23
2023/02/12 00:29:21;;;;;;;9.60;6.40;;;;;;;1.90;90.48;99106.02;105883;1253;60985;-22
2023/02/12 00:31:50;;;;;;;7.60;5.50;;;;;;;1.61;91.38;99104.33;105614;1259;75510;-22
2023/02/12 00:34:19;;;;;;;9.30;6.00;;;;;;;1.55;91.49;99111.44;105907;1254;75822;-22
2023/02/12 00:36:48;;;;;;;7.80;5.50;;;;;;;1.76;91.29;99116.39;105805;1254;73896;-22
2023/02/12 00:39:16;;;;;;;6.80;5.10;;;;;;;1.85;90.85;99127.97;105676;1254;61474;-22
2023/02/12 00:41:45;;;;;;;10.50;6.30;;;;;;;1.81;90.94;99130.35;105770;1259;61548;-22
2023/02/12 00:44:14;;;;;;;8.60;5.90;;;;;;;1.85;90.81;99137.58;105594;1254;74931;-22
2023/02/12 00:46:43;;;;;;;7.40;5.50;;;;;;;1.71;91.14;99141.40;105487;1259;75703;-22
2023/02/12 00:49:13;;;;;;;7.50;4.30;;;;;;;1.90;91.18;99143.66;105700;1254;74241;-22
2023/02/12 00:51:42;;;;;;;6.30;4.70;;;;;;;2.18;89.54;99151.19;105800;1257;61225;-22
2023/02/12 00:54:10;;;;;;;6.70;4.60;;;;;;;1.99;89.72;99150.61;105797;1257;61392;-22
2023/02/12 00:56:39;;;;;;;7.20;4.30;;;;;;;1.79;90.62;99157.86;105697;1254;75366;-22
2023/02/12 00:59:08;;;;;;;4.30;2.90;;;;;;;1.89;90.49;99167.50;105609;1259;75684;-22
2023/02/12 01:01:40;;;;;;;5.30;3.90;;;;;;;2.17;89.53;99173.81;105665;1254;73976;-22
2023/02/12 01:04:09;;;;;;;5.00;3.60;;;;;;;2.07;89.45;99178.52;105822;1258;61656;-22
2023/02/12 01:06:38;;;;;;;6.00;4.30;;;;;;;1.94;89.43;99199.66;105709;1259;61852;-22
2023/02/12 01:09:07;;;;;;;3.50;2.40;;;;;;;1.57;91.25;99214.73;105893;1258;75219;-22
2023/02/12 01:11:36;;;;;;;5.60;3.20;;;;;;;1.88;90.86;99210.52;104530;1254;1909544;-22
2023/02/12 01:14:05;;;;;;;3.30;2.50;;;;;;;1.88;89.10;99216.54;105889;1255;74411;-22
2023/02/12 01:16:36;;;;;;;3.90;2.60;;;;;;;1.80;87.60;99221.98;105687;1255;61942;-23
2023/02/12 01:19:05;;;;;;;3.60;2.20;;;;;;;1.52;87.41;99226.08;105708;1254;61583;-22
2023/02/12 01:21:34;;;;;;;2.60;2.00;;;;;;;1.22;88.19;99227.42;105835;1259;75517;-23
2023/02/12 01:24:04;;;;;;;2.60;1.80;;;;;;;1.34;87.63;99232.80;105803;1254;76021;-22
2023/02/12 01:26:32;;;;;;;2.00;1.80;;;;;;;1.47;86.31;99239.81;105612;1255;74308;-22
2023/02/12 01:29:04;;;;;;;2.00;1.70;;;;;;;1.38;85.61;99242.88;105703;1255;61126;-22
2023/02/12 01:31:36;;;;;;;2.90;1.90;;;;;;;1.16;86.33;99247.67;105646;1259;61624;-23
2023/02/12 01:34:05;;;;;;;1.70;1.50;;;;;;;1.06;86.47;99246.70;105368;1253;75332;-22
2023/02/12 01:36:34;;;;;;;3.00;2.00;;;;;;;1.07;86.23;99252.81;105600;1259;76281;-23
2023/02/12 01:39:04;;;;;;;2.10;1.40;;;;;;;1.37;85.02;99260.89;105520;1260;73140;-23
2023/02/12 01:41:36;;;;;;;2.80;1.50;;;;;;;1.11;85.12;99266.86;105587;1254;61575;-23
2023/02/12 01:44:19;;;;;;;3.10;1.50;;;;;;;0.85;86.14;99267.34;105696;1259;61643;-23
2023/02/12 01:46:59;;;;;;;1.70;1.30;;;;;;;0.62;87.08;99276.05;105683;1267;75306;-23
2023/02/12 01:49:31;;;;;;;14.90;6.80;;;;;;;0.84;86.45;99283.63;105634;1260;75793;-23
2023/02/12 01:52:14;;;;;;;2.30;1.50;;;;;;;0.94;85.66;99288.73;105627;1258;73108;-25
2023/02/12 01:54:43;;;;;;;2.00;1.70;;;;;;;0.76;86.04;99296.55;105642;1254;61483;-23
2023/02/12 01:57:12;;;;;;;3.20;1.80;;;;;;;0.71;86.42;99307.17;105721;1260;61888;-23
2023/02/12 01:59:41;;;;;;;0.90;0.80;;;;;;;0.64;86.87;99313.23;105642;1254;75236;-23
2023/02/12 02:02:10;;;;;;;1.30;1.10;;;;;;;0.89;85.52;99314.89;105427;1260;75820;-23
2023/02/12 02:04:44;;;;;;;1.50;1.10;;;;;;;0.90;84.96;99320.48;105857;1260;74209;-24
2023/02/12 02:07:17;;;;;;;2.80;1.10;;;;;;;0.84;85.31;99333.23;105602;1259;61128;-24
2023/02/12 02:09:46;;;;;;;1.00;0.80;;;;;;;0.65;85.85;99335.77;105683;1255;61799;-24
2023/02/12 02:15:07;;;;;;;1.80;1.20;;;;;;;0.52;86.84;99341.52;105587;1259;75772;-24
2023/02/12 02:17:45;;;;;;;1.40;1.20;;;;;;;0.76;85.45;99347.65;105632;1259;74524;-24
2023/02/12 02:20:41;;;;;;;2.20;1.20;;;;;;;0.58;84.89;99360.11;105850;1254;61947;-24
2023/02/12 02:23:22;;;;;;;0.60;0.50;;;;;;;0.31;85.00;99367.69;105809;1256;61166;-24
2023/02/12 02:25:51;;;;;;;4.10;1.60;;;;;;;0.11;84.74;99367.83;109413;1253;74188;-26
2023/02/12 02:28:45;;;;;;;1.30;0.90;;;;;;;0.29;82.48;99380.23;109569;1252;75295;-26
2023/02/12 02:31:18;;;;;;;2.40;1.70;;;;;;;0.38;80.72;99388.98;109445;1254;73653;-26
2023/02/12 02:33:55;;;;;;;1.90;1.10;;;;;;;0.20;79.84;99396.57;109229;1254;59494;-27
2023/02/12 02:36:27;;;;;;;2.00;1.00;;;;;;;-0.02;79.79;99403.94;109167;1254;60496;-24
2023/02/12 02:39:18;;;;;;;1.00;0.80;;;;;;;-0.17;79.74;99409.34;109334;1254;73823;-24
2023/02/12 02:41:54;;;;;;;2.20;1.00;;;;;;;-0.34;80.59;99421.13;109462;1254;74277;-24
2023/02/12 02:44:30;;;;;;;0.70;0.70;;;;;;;-0.17;79.40;99420.62;109259;1259;72602;-24
2023/02/12 02:46:59;;;;;;;1.00;0.60;;;;;;;-0.13;78.67;99418.29;109091;1254;60570;-24
2023/02/12 02:49:34;;;;;;;1.00;0.80;;;;;;;-0.26;78.90;99419.52;109574;1254;60313;-24
2023/02/12 02:52:06;;;;;;;1.50;1.00;;;;;;;-0.36;79.28;99429.23;109297;1254;73666;-24
2023/02/12 02:54:41;;;;;;;1.40;0.80;;;;;;;-0.56;79.75;99435.28;109288;1254;75427;-24
2023/02/12 02:57:17;;;;;;;0.60;0.60;;;;;;;-0.60;79.84;99443.76;109410;1254;73273;-24
2023/02/12 02:59:48;;;;;;;0.60;0.60;;;;;;;-0.57;80.24;99453.91;109253;1254;60120;-26
2023/02/12 03:02:20;;;;;;;1.70;1.00;;;;;;;-0.34;79.36;99463.96;109179;1253;59934;-26
2023/02/12 03:04:51;;;;;;;1.50;1.00;;;;;;;-0.45;79.36;99467.55;109126;1255;73829;-26
2023/02/12 03:07:28;;;;;;;0.90;0.70;;;;;;;-0.59;80.11;99469.29;109291;1253;75203;-26
2023/02/12 03:10:05;;;;;;;1.20;0.60;;;;;;;-0.71;80.93;99485.69;109178;1254;73514;-26
2023/02/12 03:13:02;;;;;;;2.60;1.20;;;;;;;-0.80;81.47;99493.76;109388;1254;59287;-26
2023/02/12 03:15:41;;;;;;;2.00;1.50;;;;;;;-0.63;81.22;99507.61;109243;1254;60353;-26
2023/02/12 03:18:13;;;;;;;2.20;1.20;;;;;;;-0.44;80.30;99511.88;109326;1254;74645;-26
2023/02/12 03:20:45;;;;;;;9.00;4.10;;;;;;;-0.48;79.97;99518.28;109178;1254;74894;-26
2023/02/12 03:23:24;;;;;;;20.90;8.50;;;;;;;-0.68;80.27;99522.42;109130;1254;73604;-26
2023/02/12 03:26:03;;;;;;;20.80;9.60;;;;;;;-0.80;80.10;99529.54;109272;1255;60413;-26
2023/02/12 03:28:33;;;;;;;13.20;6.20;;;;;;;-0.90;80.38;99534.27;109265;1260;59909;-26
2023/02/12 03:31:25;;;;;;;7.70;4.40;;;;;;;-0.87;79.00;99539.29;109224;1254;72659;-26
2023/02/12 03:33:57;;;;;;;5.20;1.00;;;;;;;-0.64;78.10;99549.60;109365;1254;75242;-26
2023/02/12 03:36:33;;;;;;;3.30;1.50;;;;;;;-0.68;77.38;99553.43;109404;1254;72622;-26
2023/02/12 03:39:34;;;;;;;2.40;1.20;;;;;;;-0.72;77.74;99559.35;109328;1254;59547;-26
2023/02/12 03:42:08;;;;;;;1.20;0.90;;;;;;;-0.88;78.49;99565.73;109003;1254;61028;-26
2023/02/12 03:44:52;;;;;;;1.20;0.90;;;;;;;-1.01;79.87;99566.60;109326;1254;73796;-26
2023/02/12 03:47:27;;;;;;;2.00;1.30;;;;;;;-0.86;80.14;99569.45;109314;1254;73248;-26
2023/02/12 03:50:06;;;;;;;1.30;1.00;;;;;;;-0.55;78.78;99574.27;109370;1254;73677;-26
2023/02/12 03:52:34;;;;;;;1.30;1.00;;;;;;;-0.79;78.57;99568.56;109196;1254;59491;-26
2023/02/12 03:55:03;;;;;;;1.40;0.90;;;;;;;-0.82;77.40;99565.94;109430;1253;60272;-27
2023/02/12 03:57:35;;;;;;;1.70;0.90;;;;;;;-1.09;77.20;99574.28;109136;1254;74787;-26
2023/02/12 04:00:06;;;;;;;0.80;0.70;;;;;;;-1.20;77.09;99579.84;109166;1254;75236;-26
2023/02/12 04:02:42;;;;;;;2.10;1.30;;;;;;;-1.29;77.37;99587.89;109399;1254;73678;-26
2023/02/12 04:05:19;;;;;;;2.10;1.10;;;;;;;-1.23;77.48;99587.77;109149;1254;62242;-26
2023/02/12 04:07:48;;;;;;;1.30;0.80;;;;;;;-0.88;77.64;99605.64;109153;1259;61195;-26
2023/02/12 04:10:17;;;;;;;0.70;0.60;;;;;;;-0.89;77.55;99615.73;109307;1254;74810;-25
2023/02/12 04:12:59;;;;;;;0.80;0.70;;;;;;;-0.86;78.26;99620.06;109357;1254;75416;-26
2023/02/12 04:15:31;;;;;;;1.60;1.00;;;;;;;-0.99;79.33;99631.33;109140;1254;73352;-26
2023/02/12 04:18:14;;;;;;;1.70;0.80;;;;;;;-1.14;79.70;99640.86;109315;1254;60245;-26
2023/02/12 04:21:02;;;;;;;2.10;0.80;;;;;;;-1.05;79.30;99636.04;109226;1254;61009;-26
2023/02/12 04:24:06;;;;;;;1.30;0.80;;;;;;;-0.83;77.98;99646.41;109424;1254;74629;-26
2023/02/12 04:26:36;;;;;;;;;;;;;;;-0.94;77.39;99652.14;109166;1254;75595;-26
2023/02/12 04:29:34;;;;;;;5.20;2.30;;;;;;;-1.08;77.25;99658.44;109337;1254;72365;-26
2023/02/12 04:32:27;;;;;;;5.00;1.90;;;;;;;-1.24;78.75;99660.86;109305;1254;60576;-26
2023/02/12 04:35:15;;;;;;;0.80;0.60;;;;;;;-1.20;79.11;99670.65;109275;1254;61196;-26
2023/02/12 04:37:56;;;;;;;0.80;0.70;;;;;;;-1.20;80.13;99674.73;109305;1254;72943;-26
2023/02/12 04:40:25;;;;;;;0.70;0.70;;;;;;;-0.91;79.65;99685.15;109092;1254;75411;-26
2023/02/12 04:42:53;;;;;;;0.60;0.60;;;;;;;-0.94;78.80;99682.85;109262;1254;73624;-26
2023/02/12 04:45:25;;;;;;;0.80;0.60;;;;;;;-1.09;78.51;99686.23;109211;1254;60334;-26
2023/02/12 04:47:53;;;;;;;0.60;0.60;;;;;;;-1.13;79.12;99696.06;109121;1254;60998;-25
2023/02/12 04:50:22;;;;;;;1.10;0.90;;;;;;;-1.17;79.86;99703.65;109303;1257;74520;-25
2023/02/12 04:52:52;;;;;;;1.50;0.60;;;;;;;-1.51;80.98;99705.42;109267;1254;75163;-25
2023/02/12 04:55:20;;;;;;;1.20;0.90;;;;;;;-1.32;80.76;99712.48;109290;1254;72651;-26
2023/02/12 04:57:49;;;;;;;2.20;1.70;;;;;;;-1.20;79.69;99714.10;109282;1254;60433;-25
2023/02/12 05:00:18;;;;;;;0.90;0.70;;;;;;;-0.99;79.46;99728.80;109288;1254;60260;-25
2023/02/12 05:02:46;;;;;;;0.90;0.80;;;;;;;-1.07;79.11;99724.56;109283;1254;73835;-25
2023/02/12 05:05:15;;;;;;;1.40;0.80;;;;;;;-1.35;80.38;99733.18;109372;1254;74419;-25
2023/02/12 05:07:44;;;;;;;1.10;0.80;;;;;;;-1.36;80.52;99739.85;109292;1254;73535;-25
2023/02/12 05:10:13;;;;;;;2.20;1.20;;;;;;;-1.48;80.80;99743.33;109233;1254;59185;-26
2023/02/12 05:12:43;;;;;;;2.20;1.10;;;;;;;-1.32;79.69;99743.85;109422;1254;61244;-26
2023/02/12 05:15:11;;;;;;;3.00;1.40;;;;;;;-1.16;78.26;99752.34;109408;1254;74584;-25
2023/02/12 05:17:40;;;;;;;5.20;1.40;;;;;;;-1.19;78.30;99757.54;109377;1254;74082;-25
2023/02/12 05:20:09;;;;;;;1.20;1.00;;;;;;;-1.18;77.96;99762.80;109399;1254;72396;-25
2023/02/12 05:22:39;;;;;;;0.80;0.70;;;;;;;-1.38;77.94;99760.50;109112;1254;60344;-26
2023/02/12 05:25:07;;;;;;;1.70;0.80;;;;;;;-1.50;78.46;99766.52;109391;1254;60974;-26
2023/02/12 05:27:36;;;;;;;1.70;0.90;;;;;;;-1.60;78.65;99772.33;109439;1254;73442;-26
2023/02/12 05:30:05;;;;;;;1.40;0.90;;;;;;;-1.56;77.98;99778.75;109309;1254;75252;-25
2023/02/12 05:32:35;;;;;;;2.20;0.90;;;;;;;-1.28;77.30;99783.63;109067;1260;73586;-26
2023/02/12 05:35:04;;;;;;;1.80;1.10;;;;;;;-1.22;76.86;99785.53;109323;1256;60349;-26
2023/02/12 05:37:35;;;;;;;0.80;0.70;;;;;;;-1.34;76.96;99790.05;109106;1257;61343;-25
2023/02/12 05:40:07;;;;;;;2.50;1.20;;;;;;;-1.49;78.03;99791.38;109099;1257;72622;-23
2023/02/12 05:42:38;;;;;;;2.90;1.10;;;;;;;-1.61;78.61;99798.93;109143;1256;74405;-23
2023/02/12 05:45:06;;;;;;;4.10;1.80;;;;;;;-1.76;79.49;99807.04;109378;1255;73339;-23
2023/02/12 05:47:35;;;;;;;2.70;1.40;;;;;;;-1.64;79.42;99808.86;109095;1255;62046;-26
2023/02/12 05:50:06;;;;;;;2.80;1.30;;;;;;;-1.37;77.79;99806.96;109370;1256;62421;-26
2023/02/12 05:52:35;;;;;;;2.40;1.40;;;;;;;-1.36;76.30;99815.83;109150;1256;73741;-26
2023/02/12 05:55:04;;;;;;;0.90;0.80;;;;;;;-1.38;76.63;99818.58;109315;1257;75267;-26
2023/02/12 05:57:33;;;;;;;3.30;1.10;;;;;;;-1.59;76.34;99829.21;109102;1255;73587;-26
2023/02/12 06:00:02;;;;;;;3.70;1.10;;;;;;;-1.70;75.62;99820.89;109227;1255;60264;-26
2023/02/12 06:02:39;;;;;;;3.10;1.40;;;;;;;-1.81;75.87;99830.48;109142;1257;61268;-26
2023/02/12 06:05:08;;;;;;;3.60;1.40;;;;;;;-1.99;76.44;99845.06;109373;1257;74782;-25
2023/02/12 06:07:36;;;;;;;2.50;1.10;;;;;;;-1.94;76.39;99857.73;109369;1256;75459;-26
2023/02/12 06:10:06;;;;;;;0.80;0.60;;;;;;;-1.65;75.30;99874.27;109329;1256;73300;-25
2023/02/12 06:12:35;;;;;;;2.40;1.10;;;;;;;-1.43;74.85;99875.24;109130;1255;60740;-26
2023/02/12 06:15:05;;;;;;;1.60;1.10;;;;;;;-1.66;74.69;99870.37;109233;1257;61273;-25
2023/02/12 06:17:34;;;;;;;3.60;1.70;;;;;;;-1.69;75.01;99877.23;109236;1256;74095;-25
2023/02/12 06:20:03;;;;;;;3.00;1.10;;;;;;;-1.82;75.08;99883.25;109262;1255;74999;-26
2023/02/12 06:22:37;;;;;;;2.40;1.00;;;;;;;-2.04;76.00;99888.70;109190;1257;72332;-25
2023/02/12 06:25:07;;;;;;;2.40;1.40;;;;;;;-2.13;75.77;99893.80;109345;1256;59532;-26
2023/02/12 06:27:35;;;;;;;2.60;1.30;;;;;;;-2.26;75.86;99884.46;109250;1257;61107;-26
2023/02/12 06:30:05;;;;;;;2.40;1.20;;;;;;;-2.39;76.06;99892.99;109356;1256;73843;-26
2023/02/12 06:32:34;;;;;;;4.00;1.50;;;;;;;-2.40;75.16;99896.75;109128;1257;75642;-26
2023/02/12 06:35:03;;;;;;;4.30;1.20;;;;;;;-2.21;74.23;99899.88;109096;1257;73577;-25
2023/02/12 06:37:35;;;;;;;2.90;1.50;;;;;;;-2.37;74.27;99915.42;109120;1257;58807;-26
2023/02/12 06:40:05;;;;;;;2.80;1.50;;;;;;;-2.35;74.83;99922.70;109188;1256;61266;-26
2023/02/12 06:42:34;;;;;;;2.50;1.30;;;;;;;-2.36;75.13;99926.62;108991;1257;74481;-25
2023/02/12 06:45:03;;;;;;;3.10;1.40;;;;;;;-2.39;75.35;99926.84;109155;1257;75291;-25
2023/02/12 06:47:32;;;;;;;4.20;1.40;;;;;;;-2.47;75.68;99930.70;109112;1257;73569;-25
2023/02/12 06:50:01;;;;;;;2.10;1.20;;;;;;;-2.37;76.06;99928.69;109157;1257;59333;-26
2023/02/12 06:52:30;;;;;;;2.30;1.60;;;;;;;-2.34;75.95;99938.51;109122;1257;60657;-25
2023/02/12 06:54:58;;;;;;;5.60;2.30;;;;;;;-2.24;76.20;99948.06;109184;1256;73559;-26
2023/02/12 06:57:28;;;;;;;1.50;1.00;;;;;;;-2.22;76.26;99952.11;108977;1257;74248;-25
2023/02/12 06:59:59;;;;;;;4.30;1.50;;;;;;;-1.87;75.31;99952.60;108989;1257;73416;-25
2023/02/12 07:02:28;;;;;;;2.90;1.20;;;;;;;-1.72;74.72;99960.55;109183;1256;58785;-26
2023/02/12 07:04:56;;;;;;;6.10;1.50;;;;;;;-1.73;75.00;99979.63;109149;1257;59442;-26
2023/02/12 07:07:25;;;;;;;7.20;2.90;;;;;;;-1.50;74.42;99984.71;109185;1256;73767;-26
2023/02/12 07:09:54;;;;;;;4.60;2.00;;;;;;;-1.77;74.78;99987.19;109128;1257;75242;-25
2023/02/12 07:12:26;;;;;;;2.10;1.30;;;;;;;-1.70;75.22;99992.35;109114;1257;73399;-26
2023/02/12 07:14:54;;;;;;;3.20;1.30;;;;;;;-1.95;75.87;99994.94;109152;1257;60501;-26
2023/02/12 07:17:23;;;;;;;2.70;1.30;;;;;;;-1.99;75.95;100012.55;109147;1257;60204;-25
2023/02/12 07:19:52;;;;;;;4.60;2.60;;;;;;;-1.91;76.45;100017.53;109153;1256;73483;-25
2023/02/12 07:22:21;;;;;;;3.50;1.30;;;;;;;-1.76;76.23;100012.88;109171;1256;75037;-25
2023/02/12 07:24:50;;;;;;;3.20;1.80;;;;;;;-1.86;75.81;100008.09;109122;1257;73539;-26
2023/02/12 07:27:20;;;;;;;4.10;1.50;;;;;;;-1.76;75.72;99995.17;109154;1257;60373;-25
2023/02/12 07:29:48;;;;;;;2.10;1.30;;;;;;;-1.62;75.57;99994.27;109184;1257;61021;-26
2023/02/12 07:32:17;;;;;;;2.10;1.50;;;;;;;-1.34;75.68;100007.61;109133;1257;74841;-25
2023/02/12 07:34:47;;;;;;;4.70;1.60;;;;;;;-1.20;74.74;100006.36;109133;1257;73529;-26
2023/02/12 07:37:21;;;;;;;3.60;1.30;;;;;;;-1.26;73.85;100012.92;109088;1257;71523;-25
2023/02/12 07:39:50;;;;;;;2.30;1.40;;;;;;;-1.14;73.37;100022.27;109121;1257;59621;-25
2023/02/12 07:42:19;;;;;;;7.40;1.90;;;;;;;-1.12;73.01;100023.77;109090;1257;60376;-26
2023/02/12 07:44:51;;;;;;;2.90;1.60;;;;;;;-1.41;73.25;100024.07;109120;1259;74902;-26
2023/02/12 07:47:20;;;;;;;2.20;1.10;;;;;;;-1.62;73.60;100025.42;109127;1259;73816;-26
2023/02/12 07:49:49;;;;;;;1.90;1.00;;;;;;;-1.78;73.79;100034.70;109097;1257;72057;-26
2023/02/12 07:52:18;;;;;;;2.50;1.80;;;;;;;-1.63;74.00;100040.27;109082;1257;60546;-25
2023/02/12 07:54:47;;;;;;;5.20;1.80;;;;;;;-1.66;73.57;100034.02;109131;1257;59346;-26
2023/02/12 07:57:16;;;;;;;1.80;1.30;;;;;;;-1.43;73.70;100040.81;109127;1257;74408;-26
2023/02/12 07:59:44;;;;;;;2.20;1.30;;;;;;;-1.52;73.71;100040.10;109147;1257;74398;-26
2023/02/12 08:02:14;;;;;;;4.00;1.40;;;;;;;-1.53;73.57;100048.63;109132;1257;72588;-26
2023/02/12 08:04:43;;;;;;;4.10;1.60;;;;;;;-1.37;73.54;100052.80;109072;1257;59346;-26
2023/02/12 08:07:12;;;;;;;2.40;1.40;;;;;;;-1.42;73.47;100054.24;109128;1257;61266;-26
2023/02/12 08:09:41;;;;;;;2.10;1.20;;;;;;;-1.58;72.10;100059.10;109142;1257;74979;-26
2023/02/12 08:12:10;;;;;;;1.60;1.00;;;;;;;-1.64;72.74;100064.63;109101;1257;74977;-26
2023/02/12 08:14:39;;;;;;;3.30;1.50;;;;;;;-1.61;73.22;100063.05;109128;1257;73342;-26
2023/02/12 08:17:08;;;;;;;2.60;1.40;;;;;;;-1.46;73.44;100076.11;109124;1257;59235;-25
2023/02/12 08:19:37;;;;;;;8.70;3.70;;;;;;;-1.45;74.15;100078.14;109128;1257;59999;-26
2023/02/12 08:22:06;;;;;;;4.30;2.00;;;;;;;-1.60;73.52;100078.54;109138;1257;73823;-25
2023/02/12 08:24:35;;;;;;;3.60;1.80;;;;;;;-1.52;73.47;100081.65;109118;1257;74785;-26
2023/02/12 08:27:04;;;;;;;2.10;0.90;;;;;;;-1.43;73.99;100081.86;109121;1257;73627;-26
2023/02/12 08:29:33;;;;;;;2.60;1.00;;;;;;;-1.47;73.25;100091.80;109111;1257;59429;-25
2023/02/12 08:32:03;;;;;;;1.80;0.90;;;;;;;-1.76;72.76;100093.41;109111;1257;59980;-26
2023/02/12 08:34:35;;;;;;;2.80;1.20;;;;;;;-1.90;72.92;100094.45;108931;1257;72881;-26
2023/02/12 08:37:06;;;;;;;3.10;1.60;;;;;;;-1.84;72.49;100095.91;109003;1257;74257;-26
2023/02/12 08:39:38;;;;;;;;;;;;;;;-1.93;72.83;100107.25;108983;1257;71497;-26
2023/02/12 08:42:11;;;;;;;1.90;1.10;;;;;;;-1.97;73.72;100117.17;109036;1258;59379;-26
2023/02/12 08:44:43;;;;;;;2.50;1.10;;;;;;;-1.88;72.87;100117.39;108909;1257;59415;-26
2023/02/12 08:47:14;;;;;;;1.10;0.80;;;;;;;-1.84;72.57;100126.22;109068;1257;73458;-26
2023/02/12 08:49:46;;;;;;;2.90;1.10;;;;;;;-1.67;72.60;100129.56;108988;1257;73987;-26
2023/02/12 08:52:19;;;;;;;4.10;1.20;;;;;;;-1.65;71.67;100132.06;108957;1257;72637;-26
2023/02/12 08:54:50;;;;;;;2.10;1.40;;;;;;;-1.72;72.73;100143.06;108957;1257;58802;-26
2023/02/12 08:57:23;;;;;;;2.40;1.20;;;;;;;-1.68;72.68;100155.27;109116;1257;61437;-26
2023/02/12 08:59:53;;;;;;;2.20;1.00;;;;;;;-1.78;71.75;100152.52;108979;1257;71557;-25
2023/02/12 09:02:25;;;;;;;3.10;1.00;;;;;;;-1.77;71.23;100145.86;109081;1257;75232;-26
2023/02/12 09:04:57;;;;;;;1.80;1.00;;;;;;;-1.72;70.56;100152.93;108913;1262;73682;-26
2023/02/12 09:07:27;;;;;;;1.40;0.80;;;;;;;-1.58;70.17;100147.30;108972;1261;58772;-26
2023/02/12 09:09:57;;;;;;;1.10;0.80;;;;;;;-1.57;70.27;100153.61;108972;1257;60245;-26
2023/02/12 09:12:27;;;;;;;1.60;1.00;;;;;;;-1.51;71.41;100164.41;108990;1257;72011;-26
2023/02/12 09:14:58;;;;;;;3.50;1.30;;;;;;;-1.29;70.43;100163.93;108992;1257;74191;-26
2023/02/12 09:17:30;;;;;;;2.00;1.00;;;;;;;-1.06;70.26;100170.73;108985;1257;72724;-26
2023/02/12 09:20:02;;;;;;;1.20;0.90;;;;;;;-0.90;69.60;100166.59;108963;1257;60657;-24
2023/02/12 09:22:36;;;;;;;2.10;1.20;;;;;;;-0.80;68.61;100170.84;109123;1257;59061;-24
2023/02/12 09:25:09;;;;;;;1.40;0.90;;;;;;;-0.65;69.24;100174.36;108984;1257;73869;-24
2023/02/12 09:27:41;;;;;;;2.70;0.90;;;;;;;-0.77;69.48;100178.30;109065;1257;74245;-24
2023/02/12 09:30:13;;;;;;;1.60;0.90;;;;;;;-0.75;68.78;100175.88;109047;1257;72821;-24
2023/02/12 09:40:27;;;;;;;2.60;0.90;;;;;;;-0.11;68.61;100189.23;102606;1292;600083;-25
2023/02/12 09:43:09;;;;;;;1.20;0.70;;;;;;;-0.04;66.86;100186.03;104822;1267;61135;-26
2023/02/12 09:45:44;;;;;;;1.60;0.90;;;;;;;-0.12;66.95;100190.64;104808;1266;61094;-26
2023/02/12 09:48:15;;;;;;;1.40;1.10;;;;;;;-0.16;67.64;100198.73;104835;1272;73660;-25
2023/02/12 09:50:53;;;;;;;2.10;1.10;;;;;;;0.15;68.06;100199.33;105343;1261;75993;-25
2023/02/12 09:54:11;;;;;;;1.50;0.80;;;;;;;0.40;65.50;100182.42;102689;1293;600559;-26
2023/02/12 09:56:43;;;;;;;1.10;0.70;;;;;;;-0.33;65.33;100206.55;104809;1272;61116;-26
2023/02/12 09:59:13;;;;;;;1.70;1.00;;;;;;;-0.42;66.10;100203.64;104807;1267;61579;-24
2023/02/12 10:01:42;;;;;;;1.80;0.70;;;;;;;0.02;66.15;100195.31;104703;1266;73501;-26
2023/02/12 10:04:11;;;;;;;2.10;1.00;;;;;;;0.52;66.45;100202.17;104885;1270;76576;-24
2023/02/12 10:06:47;;;;;;;2.30;1.30;;;;;;;0.29;65.42;100204.35;103475;1266;1857553;-24
2023/02/12 10:09:34;;;;;;;3.30;1.30;;;;;;;0.08;64.83;100209.70;105630;1254;61208;-24
2023/02/12 10:12:03;;;;;;;3.60;1.60;;;;;;;-0.16;65.46;100211.02;105665;1254;61194;-24
2023/02/12 10:14:39;;;;;;;1.90;1.30;;;;;;;-0.21;64.58;100211.10;105694;1253;73717;-24
2023/02/12 10:17:17;;;;;;;1.10;0.80;;;;;;;0.15;64.44;100205.48;105703;1254;75841;-25
2023/02/12 10:20:05;;;;;;;2.30;1.00;;;;;;;0.02;63.68;100195.48;105685;1253;74261;-25
2023/02/12 10:22:42;;;;;;;2.00;0.80;;;;;;;0.22;61.97;100195.77;105664;1254;61083;-25
2023/02/12 10:25:29;;;;;;;2.40;1.10;;;;;;;0.29;61.57;100192.40;105692;1261;61655;-25
2023/02/12 10:28:08;;;;;;;2.10;1.10;;;;;;;0.10;61.46;100186.11;105481;1259;74508;-25
2023/02/12 10:30:44;;;;;;;1.90;1.00;;;;;;;0.44;61.84;100183.02;105626;1254;75717;-25
2023/02/12 10:33:44;;;;;;;1.90;0.80;;;;;;;0.57;60.64;100173.52;105657;1257;74196;-25
2023/02/12 10:36:18;;;;;;;1.90;1.10;;;;;;;0.40;60.66;100178.83;105595;1262;61151;-25
2023/02/12 10:39:00;;;;;;;3.60;1.10;;;;;;;0.36;60.69;100170.21;105625;1257;61059;-25
2023/02/12 10:41:29;;;;;;;2.40;1.10;;;;;;;0.43;59.64;100180.30;105526;1257;74323;-26
2023/02/12 10:43:57;;;;;;;1.30;0.80;;;;;;;0.47;60.32;100176.29;105656;1256;75610;-25
2023/02/12 10:46:29;;;;;;;3.00;1.30;;;;;;;0.89;58.11;100168.17;105614;1257;74172;-26
2023/02/12 10:48:59;;;;;;;3.50;1.50;;;;;;;0.59;56.83;100164.92;105285;1261;61182;-25
2023/02/12 10:51:47;;;;;;;1.40;1.10;;;;;;;0.68;57.81;100169.00;105638;1259;62176;-26
2023/02/12 10:54:31;;;;;;;2.30;1.40;;;;;;;0.60;58.32;100171.39;105573;1260;74838;-26
2023/02/12 10:57:10;;;;;;;1.70;0.80;;;;;;;0.70;57.54;100166.73;105659;1259;74273;-25
2023/02/12 10:59:43;;;;;;;1.60;0.80;;;;;;;1.09;56.42;100152.81;105547;1254;73184;-25
2023/02/12 11:02:27;;;;;;;3.90;0.90;;;;;;;1.15;55.05;100170.64;105644;1257;61626;-26
2023/02/12 11:04:57;;;;;;;3.40;1.80;;;;;;;1.08;54.90;100182.27;105394;1259;61911;-25
2023/02/12 11:07:26;;;;;;;3.00;0.80;;;;;;;1.27;56.24;100181.65;105310;1260;74263;-25
2023/02/12 11:09:55;;;;;;;4.60;2.50;;;;;;;1.36;58.06;100176.78;105505;1257;75959;-25
2023/02/12 11:12:39;;;;;;;5.10;2.20;;;;;;;1.41;56.42;100186.42;105654;1257;74211;-26
2023/02/12 11:15:19;;;;;;;2.50;0.70;;;;;;;1.44;56.29;100177.61;105148;1257;61138;-26
2023/02/12 11:18:02;;;;;;;2.40;0.80;;;;;;;1.40;57.08;100182.69;105249;1257;61058;-25
2023/02/12 11:20:42;;;;;;;1.50;0.90;;;;;;;1.18;56.56;100181.17;105296;1255;74703;-25
2023/02/12 11:23:27;;;;;;;3.30;1.30;;;;;;;1.05;56.09;100191.73;105598;1257;75851;-26
2023/02/12 11:26:01;;;;;;;1.20;0.70;;;;;;;0.99;57.15;100193.73;105637;1259;73500;-25
2023/02/12 11:28:31;;;;;;;1.60;0.70;;;;;;;1.25;56.63;100192.98;105612;1255;61173;-26
2023/02/12 11:31:21;;;;;;;1.20;0.70;;;;;;;1.00;58.06;100186.73;105562;1262;61624;-25
2023/02/12 11:34:13;;;;;;;1.10;0.80;;;;;;;1.00;59.51;100195.27;105639;1257;74340;-25
2023/02/12 11:36:47;;;;;;;1.40;0.90;;;;;;;0.93;57.79;100190.48;105628;1257;75307;-25
2023/02/12 11:39:23;;;;;;;1.90;1.00;;;;;;;0.94;58.25;100218.16;105646;1261;73527;-25
2023/02/12 11:42:03;;;;;;;1.70;1.10;;;;;;;1.31;56.71;100209.60;105633;1257;61118;-26
2023/02/12 11:44:37;;;;;;;1.40;0.90;;;;;;;1.23;57.00;100206.02;105462;1259;61531;-25
2023/02/12 11:47:21;;;;;;;2.50;1.00;;;;;;;1.11;55.35;100207.00;105246;1257;73299;-25
2023/02/12 11:49:50;;;;;;;;;;;;;;;1.19;56.17;100202.71;105433;1257;74855;-25
2023/02/12 11:52:20;;;;;;;6.90;0.90;;;;;;;1.00;55.82;100194.42;105659;1257;74341;-26
2023/02/12 11:54:51;;;;;;;1.00;0.70;;;;;;;0.82;55.65;100196.90;105247;1257;61407;-25
2023/02/12 11:57:45;;;;;;;1.80;0.90;;;;;;;0.93;56.30;100201.45;105433;1255;61803;-25
2023/02/12 12:00:24;;;;;;;1.00;0.80;;;;;;;1.12;56.36;100201.32;105457;1262;73522;-25
2023/02/12 12:03:15;;;;;;;0.90;0.60;;;;;;;0.98;57.23;100193.26;105448;1262;75245;-25